Time;durP1;ratioP1;P1;durP2;ratioP2;P2;SDS_P1;SDS_P2;PMS_P1;PMS_P2;Temp;Humidity;BMP_temperature;BMP_pressure;BME280_temperature;BME280_humidity;BME280_pressure;Samples;Min_cycle;Max_cycle;Signal;HPM_P1;HPM_P2
2021/03/19 00:00:11;;;;;;;15.93;7.03;;;;;;;0.24;61.76;93524.91;5087834;28;20024;-77
2021/03/19 00:02:38;;;;;;;14.63;8.02;;;;;;;0.11;62.46;93514.94;5088196;28;20024;-78
2021/03/19 00:05:11;;;;;;;16.10;8.85;;;;;;;0.11;62.88;93526.19;5088109;28;20226;-77
2021/03/19 00:07:51;;;;;;;14.40;7.95;;;;;;;0.05;63.54;93526.44;5089470;28;20030;-78
2021/03/19 00:10:21;;;;;;;14.82;7.80;;;;;;;-0.04;63.47;93531.34;5087899;28;20024;-77
2021/03/19 00:12:48;;;;;;;14.50;8.02;;;;;;;-0.16;63.95;93521.09;5088200;28;20039;-77
2021/03/19 00:15:15;;;;;;;16.35;8.80;;;;;;;-0.22;64.49;93527.34;5090322;28;20024;-78
2021/03/19 00:17:41;;;;;;;16.50;9.13;;;;;;;-0.27;64.81;93528.09;5093254;28;20110;-77
2021/03/19 00:20:09;;;;;;;16.75;9.95;;;;;;;-0.28;65.01;93523.13;5091219;28;20055;-77
2021/03/19 00:22:35;;;;;;;16.55;9.20;;;;;;;-0.28;65.07;93530.97;5091603;28;20024;-77
2021/03/19 00:25:01;;;;;;;16.63;9.05;;;;;;;-0.29;65.11;93524.94;5091603;28;20085;-78
2021/03/19 00:27:26;;;;;;;15.93;8.95;;;;;;;-0.28;65.86;93526.53;5093295;28;20895;-78
2021/03/19 00:29:52;;;;;;;15.77;9.18;;;;;;;-0.36;65.68;93526.22;5093075;28;20468;-78
2021/03/19 00:32:17;;;;;;;16.13;9.38;;;;;;;-0.51;66.52;93525.09;5091750;28;20541;-78
2021/03/19 00:34:43;;;;;;;17.00;8.95;;;;;;;-0.48;66.36;93529.81;5091867;28;20061;-78
2021/03/19 00:37:08;;;;;;;17.50;9.70;;;;;;;-0.51;66.64;93532.13;5091582;28;20035;-78
2021/03/19 00:39:34;;;;;;;17.75;10.85;;;;;;;-0.48;66.97;93523.78;5092827;28;20418;-78
2021/03/19 00:42:01;;;;;;;16.30;9.32;;;;;;;-0.54;66.88;93522.19;5091861;28;20028;-78
2021/03/19 00:44:26;;;;;;;15.98;9.00;;;;;;;-0.51;67.14;93509.38;5091786;28;20089;-78
2021/03/19 00:46:52;;;;;;;15.73;8.90;;;;;;;-0.52;66.99;93509.63;5091617;28;20032;-78
2021/03/19 00:49:17;;;;;;;16.08;8.82;;;;;;;-0.58;67.31;93518.47;5091305;28;20457;-78
2021/03/19 00:51:43;;;;;;;15.63;8.13;;;;;;;-0.70;67.61;93519.44;5091489;28;20552;-78
2021/03/19 00:54:09;;;;;;;16.98;9.30;;;;;;;-0.74;67.64;93515.75;5092320;28;20052;-78
2021/03/19 00:56:34;;;;;;;16.58;8.60;;;;;;;-0.83;68.46;93515.44;5092521;28;20032;-78
2021/03/19 00:59:00;;;;;;;18.13;8.93;;;;;;;-0.86;68.19;93521.16;5092460;28;20380;-81
2021/03/19 01:01:25;;;;;;;16.42;9.13;;;;;;;-0.86;68.79;93515.13;5090608;28;20476;-80
2021/03/19 01:03:50;;;;;;;17.67;8.85;;;;;;;-0.84;68.39;93515.66;5090829;28;20126;-80
2021/03/19 01:06:16;;;;;;;21.35;10.18;;;;;;;-0.82;68.51;93514.38;5092155;28;20034;-78
2021/03/19 01:08:42;;;;;;;19.35;10.07;;;;;;;-0.70;69.04;93513.41;5091578;28;20032;-80
2021/03/19 01:11:07;;;;;;;19.83;9.98;;;;;;;-0.68;68.46;93512.13;5090726;28;20481;-81
2021/03/19 01:13:33;;;;;;;16.60;8.98;;;;;;;-0.65;68.41;93508.25;5091667;28;20597;-80
2021/03/19 01:15:58;;;;;;;19.10;10.30;;;;;;;-0.71;68.20;93506.59;5090649;28;20036;-80
2021/03/19 01:18:27;;;;;;;18.02;10.25;;;;;;;-0.76;68.69;93507.34;5090411;28;20052;-80
2021/03/19 01:20:52;;;;;;;17.27;9.45;;;;;;;-0.73;68.54;93500.81;5090553;28;20032;-81
2021/03/19 01:23:19;;;;;;;17.60;8.70;;;;;;;-0.73;68.74;93509.50;5091754;28;20414;-81
2021/03/19 01:25:44;;;;;;;16.98;8.88;;;;;;;-0.66;68.18;93493.56;5089851;28;20483;-81
2021/03/19 01:28:10;;;;;;;16.25;8.52;;;;;;;-0.66;68.48;93504.81;5090405;28;20032;-81
2021/03/19 01:30:37;;;;;;;17.17;9.18;;;;;;;-0.64;68.22;93497.50;5091343;28;20061;-80
2021/03/19 01:33:04;;;;;;;19.30;9.27;;;;;;;-0.61;68.08;93499.63;5090226;28;20020;-80
2021/03/19 01:35:31;;;;;;;20.48;10.35;;;;;;;-0.53;68.12;93501.00;5090285;28;20020;-80
2021/03/19 01:37:57;;;;;;;20.05;9.38;;;;;;;-0.57;68.01;93505.16;5089747;28;20126;-80
2021/03/19 01:40:25;;;;;;;17.50;9.45;;;;;;;-0.47;67.86;93505.22;5089875;28;20107;-81
2021/03/19 01:42:55;;;;;;;16.77;8.73;;;;;;;-0.45;67.56;93505.75;5089694;28;20102;-81
2021/03/19 01:45:46;;;;;;;15.45;9.15;;;;;;;-0.42;67.83;93505.22;5089937;28;20405;-82
2021/03/19 01:48:48;;;;;;;16.35;8.70;;;;;;;-0.50;67.66;93507.53;5089891;28;20039;-81
2021/03/19 01:51:51;;;;;;;19.50;8.93;;;;;;;-0.55;67.68;93494.41;5091046;28;20451;-81
2021/03/19 01:54:35;;;;;;;;;;;;;;;-0.53;67.52;93500.19;5090007;28;20131;-81
2021/03/19 01:57:38;;;;;;;17.27;8.82;;;;;;;-0.56;67.78;93498.84;5087404;28;20007;-81
2021/03/19 02:00:41;;;;;;;15.75;8.98;;;;;;;-0.56;67.97;93493.63;5087577;28;20173;-80
2021/03/19 02:03:44;;;;;;;14.55;8.43;;;;;;;-0.57;67.76;93496.47;5087567;28;20399;-80
2021/03/19 02:06:47;;;;;;;14.63;7.95;;;;;;;-0.60;67.82;93500.41;5089374;28;20054;-80
2021/03/19 02:09:49;;;;;;;15.77;8.95;;;;;;;-0.58;67.83;93494.94;5090782;28;20020;-80
2021/03/19 02:12:33;;;;;;;;;;;;;;;-0.52;67.93;93486.06;5089666;28;20044;-80
2021/03/19 02:15:36;;;;;;;15.05;8.23;;;;;;;-0.51;67.26;93485.00;5089087;28;19920;-77
2021/03/19 02:18:39;;;;;;;13.50;7.97;;;;;;;-0.48;66.94;93487.91;5089405;28;20511;-78
2021/03/19 02:21:42;;;;;;;16.10;8.10;;;;;;;-0.53;66.59;93482.66;5090569;28;20059;-78
2021/03/19 02:24:45;;;;;;;15.57;7.47;;;;;;;-0.64;66.75;93489.66;5086578;28;20418;-79
2021/03/19 02:27:48;;;;;;;14.23;8.38;;;;;;;-0.70;66.72;93487.25;5089089;28;20028;-78
2021/03/19 02:30:51;;;;;;;14.30;7.57;;;;;;;-0.64;66.91;93489.66;5089098;28;20100;-80
2021/03/19 02:33:16;;;;;;;13.18;7.45;;;;;;;-0.67;66.32;93489.34;5088771;28;20076;-80
2021/03/19 02:35:58;;;;;;;12.27;7.50;;;;;;;-0.71;65.76;93489.09;5089278;28;20035;-80
2021/03/19 02:38:25;;;;;;;10.73;6.53;;;;;;;-0.71;65.29;93485.66;5089810;28;20032;-78
2021/03/19 02:40:51;;;;;;;15.15;8.45;;;;;;;-0.69;65.43;93489.63;5090225;28;20028;-78
2021/03/19 02:43:18;;;;;;;12.20;6.93;;;;;;;-0.64;65.42;93487.03;5088965;28;20024;-78
2021/03/19 02:45:44;;;;;;;14.65;7.40;;;;;;;-0.63;65.05;93486.00;5090186;28;20031;-79
2021/03/19 02:48:11;;;;;;;15.75;8.43;;;;;;;-0.57;65.40;93476.34;5088740;28;20035;-78
2021/03/19 02:50:37;;;;;;;13.70;7.50;;;;;;;-0.51;65.52;93469.28;5088832;28;20028;-80
2021/03/19 02:53:03;;;;;;;14.85;8.18;;;;;;;-0.43;64.55;93479.28;5088348;28;20150;-80
2021/03/19 02:55:28;;;;;;;15.43;8.30;;;;;;;-0.36;64.61;93477.25;5088549;28;20066;-80
2021/03/19 02:57:54;;;;;;;15.13;8.23;;;;;;;-0.34;65.10;93469.94;5089989;28;20028;-80
2021/03/19 03:00:23;;;;;;;16.55;7.72;;;;;;;-0.34;64.59;93469.94;5088696;28;20042;-80
2021/03/19 03:02:49;;;;;;;13.52;8.35;;;;;;;-0.37;64.66;93475.66;5089994;28;20020;-80
2021/03/19 03:05:15;;;;;;;14.18;7.53;;;;;;;-0.36;64.52;93466.78;5089937;28;20043;-80
2021/03/19 03:07:41;;;;;;;13.15;8.05;;;;;;;-0.39;64.19;93472.50;5088420;28;20020;-80
2021/03/19 03:10:12;;;;;;;10.27;6.72;;;;;;;-0.45;64.01;93463.84;5089964;28;20394;-80
2021/03/19 03:12:37;;;;;;;13.32;6.78;;;;;;;-0.42;64.06;93462.56;5089926;28;20503;-80
2021/03/19 03:15:07;;;;;;;13.43;8.02;;;;;;;-0.38;64.12;93473.31;5089911;28;20028;-80
2021/03/19 03:17:33;;;;;;;14.00;7.05;;;;;;;-0.39;64.32;93472.50;5088503;28;20043;-80
2021/03/19 03:19:58;;;;;;;13.80;7.97;;;;;;;-0.38;64.48;93468.84;5088596;28;20451;-80
2021/03/19 03:22:24;;;;;;;13.57;8.35;;;;;;;-0.40;64.20;93465.69;5089480;28;20119;-81
2021/03/19 03:24:49;;;;;;;14.98;8.35;;;;;;;-0.37;64.87;93464.41;5089648;28;20454;-81
2021/03/19 03:27:15;;;;;;;13.43;7.43;;;;;;;-0.33;64.57;93468.88;5088610;28;20035;-80
2021/03/19 03:29:40;;;;;;;14.52;8.60;;;;;;;-0.28;64.68;93473.38;5089568;28;20535;-81
2021/03/19 03:32:06;;;;;;;15.07;8.60;;;;;;;-0.27;64.41;93467.84;5090127;28;20403;-81
2021/03/19 03:34:32;;;;;;;16.77;8.85;;;;;;;-0.23;64.78;93470.75;5088637;28;20110;-80
2021/03/19 03:36:59;;;;;;;16.75;9.57;;;;;;;-0.25;64.49;93467.59;5089628;28;20119;-78
2021/03/19 03:39:28;;;;;;;15.70;8.95;;;;;;;-0.36;64.68;93466.78;5089610;28;20407;-81
2021/03/19 03:41:56;;;;;;;13.00;7.75;;;;;;;-0.28;64.75;93471.53;5100791;28;20380;-81
2021/03/19 03:44:22;;;;;;;15.68;8.70;;;;;;;-0.24;64.60;93469.97;5105644;28;20027;-81
2021/03/19 03:46:47;;;;;;;15.18;8.10;;;;;;;-0.24;64.16;93472.59;5106151;28;20039;-82
2021/03/19 03:49:15;;;;;;;16.10;8.25;;;;;;;-0.23;64.71;93470.75;5106120;28;20020;-81
2021/03/19 03:51:41;;;;;;;14.32;8.75;;;;;;;-0.29;63.96;93472.56;5098219;28;20047;-81
2021/03/19 03:54:07;;;;;;;15.95;8.18;;;;;;;-0.26;64.11;93466.81;5093558;28;20052;-77
2021/03/19 03:56:32;;;;;;;17.10;9.55;;;;;;;-0.30;64.03;93473.59;5092907;28;20404;-81
2021/03/19 03:58:58;;;;;;;14.77;8.27;;;;;;;-0.33;63.81;93468.88;5097682;28;20024;-80
2021/03/19 04:01:24;;;;;;;12.98;7.47;;;;;;;-0.35;63.86;93478.81;5096351;28;20098;-80
2021/03/19 04:03:50;;;;;;;15.10;7.13;;;;;;;-0.39;64.20;93474.34;5095823;28;20020;-81
2021/03/19 04:06:17;;;;;;;12.15;7.40;;;;;;;-0.41;63.86;93474.59;5095770;28;20137;-82
2021/03/19 04:08:42;;;;;;;15.10;8.13;;;;;;;-0.41;63.90;93475.41;5096939;28;20158;-80
2021/03/19 04:11:11;;;;;;;14.65;8.43;;;;;;;-0.41;64.40;93483.25;5096188;28;20070;-80
2021/03/19 04:13:38;;;;;;;18.05;7.10;;;;;;;-0.43;63.65;93484.53;5095975;28;20548;-81
2021/03/19 04:16:04;;;;;;;12.60;6.78;;;;;;;-0.52;63.64;93480.81;5094570;28;20158;-78
2021/03/19 04:18:29;;;;;;;14.75;7.03;;;;;;;-0.46;63.87;93492.91;5093222;28;20024;-81
2021/03/19 04:20:58;;;;;;;13.00;7.97;;;;;;;-0.55;63.71;93494.41;5091609;28;20085;-81
2021/03/19 04:23:30;;;;;;;14.65;7.45;;;;;;;-0.67;64.41;93503.25;5091535;28;20399;-81
2021/03/19 04:25:56;;;;;;;14.27;6.75;;;;;;;-0.74;65.25;93494.81;5092872;28;20389;-81
2021/03/19 04:28:24;;;;;;;12.73;6.90;;;;;;;-0.74;65.32;93496.66;5091470;28;20024;-81
2021/03/19 04:30:50;;;;;;;14.02;8.52;;;;;;;-0.69;65.44;93487.00;5091269;28;20420;-81
2021/03/19 04:33:23;;;;;;;15.65;7.70;;;;;;;-0.58;65.21;93500.16;5091304;28;20023;-81
2021/03/19 04:35:55;;;;;;;16.45;8.15;;;;;;;-0.57;64.45;93506.97;5091117;28;20107;-81
2021/03/19 04:38:21;;;;;;;13.10;7.65;;;;;;;-0.58;65.16;93497.53;5092548;28;20024;-81
2021/03/19 04:40:46;;;;;;;13.55;7.00;;;;;;;-0.71;64.84;93499.56;5090854;28;20032;-81
2021/03/19 04:43:14;;;;;;;14.02;7.93;;;;;;;-0.66;65.03;93496.97;5091147;28;20066;-81
2021/03/19 04:45:43;;;;;;;15.52;8.23;;;;;;;-0.59;64.91;93499.38;5091205;28;20094;-80
2021/03/19 04:48:09;;;;;;;16.63;8.15;;;;;;;-0.55;64.16;93505.69;5091009;28;20020;-81
2021/03/19 04:50:35;;;;;;;12.15;7.50;;;;;;;-0.59;63.90;93511.66;5092278;28;20038;-82
2021/03/19 04:53:00;;;;;;;14.00;8.07;;;;;;;-0.59;63.80;93509.84;5090873;28;20035;-81
2021/03/19 04:55:26;;;;;;;14.43;7.75;;;;;;;-0.47;63.82;93507.03;5090786;28;20482;-81
2021/03/19 04:57:52;;;;;;;25.52;10.57;;;;;;;-0.42;64.10;93504.44;5092269;28;20434;-81
2021/03/19 05:00:21;;;;;;;15.93;9.00;;;;;;;-0.37;62.78;93501.84;5090339;28;20399;-82
2021/03/19 05:02:48;;;;;;;14.85;8.32;;;;;;;-0.38;62.47;93505.50;5091930;28;20408;-81
2021/03/19 05:05:25;;;;;;;12.25;7.03;;;;;;;-0.37;62.02;93499.22;5091106;28;20035;-82
2021/03/19 05:07:51;;;;;;;13.60;7.40;;;;;;;-0.44;61.32;93506.53;5091169;28;20024;-81
2021/03/19 05:10:19;;;;;;;12.25;6.78;;;;;;;-0.39;61.46;93498.69;5092396;28;20036;-82
2021/03/19 05:12:45;;;;;;;14.60;7.53;;;;;;;-0.42;61.15;93509.69;5092888;28;20020;-81
2021/03/19 05:15:11;;;;;;;12.02;7.50;;;;;;;-0.41;61.31;93508.63;5094220;28;20039;-82
2021/03/19 05:17:37;;;;;;;12.82;7.13;;;;;;;-0.36;60.75;93508.66;5092917;28;20039;-80
2021/03/19 05:20:05;;;;;;;14.10;6.95;;;;;;;-0.33;60.37;93502.13;5091743;28;20517;-79
2021/03/19 05:22:30;;;;;;;13.27;7.10;;;;;;;-0.32;60.30;93514.97;5090249;28;20024;-82
2021/03/19 05:24:56;;;;;;;10.15;6.45;;;;;;;-0.28;60.05;93518.66;5090384;28;20416;-81
2021/03/19 05:27:22;;;;;;;15.32;8.23;;;;;;;-0.27;60.17;93516.81;5090481;28;20039;-81
2021/03/19 05:29:47;;;;;;;13.45;7.00;;;;;;;-0.24;60.23;93514.50;5090066;28;20525;-81
2021/03/19 05:32:13;;;;;;;17.17;8.10;;;;;;;-0.16;59.66;93520.28;5090152;28;20036;-81
2021/03/19 05:34:38;;;;;;;19.45;7.85;;;;;;;-0.18;59.22;93527.59;5090185;28;20024;-81
2021/03/19 05:37:04;;;;;;;13.38;6.10;;;;;;;-0.17;59.15;93532.59;5090270;28;20024;-81
2021/03/19 05:39:30;;;;;;;15.23;7.78;;;;;;;-0.20;59.41;93522.66;5090217;28;20137;-81
2021/03/19 05:41:55;;;;;;;13.10;7.00;;;;;;;-0.27;59.48;93533.31;5089991;28;20114;-81
2021/03/19 05:44:24;;;;;;;14.45;7.00;;;;;;;-0.28;59.34;93539.63;5089799;28;20492;-81
2021/03/19 05:46:52;;;;;;;12.48;6.78;;;;;;;-0.23;60.07;93523.91;5091203;28;20028;-80
2021/03/19 05:49:23;;;;;;;11.55;6.25;;;;;;;-0.20;59.02;93527.88;5092297;28;20023;-80
2021/03/19 05:51:55;;;;;;;13.68;7.25;;;;;;;-0.16;58.76;93530.75;5093772;28;20476;-81
2021/03/19 05:54:30;;;;;;;12.23;6.68;;;;;;;-0.17;59.31;93540.47;5091568;28;20186;-80
2021/03/19 05:57:07;;;;;;;11.05;6.30;;;;;;;-0.14;58.95;93532.09;5091484;28;20055;-81
2021/03/19 05:59:50;;;;;;;12.75;7.57;;;;;;;-0.12;58.95;93535.25;5091399;28;20024;-80
2021/03/19 06:02:37;;;;;;;13.55;7.05;;;;;;;-0.10;58.38;93543.66;5088429;28;20035;-80
2021/03/19 06:05:29;;;;;;;14.18;6.45;;;;;;;-0.19;58.03;93541.75;5091464;28;20089;-81
2021/03/19 06:08:06;;;;;;;13.32;6.45;;;;;;;-0.25;58.02;93546.19;5087603;28;20132;-81
2021/03/19 06:10:40;;;;;;;11.82;6.38;;;;;;;-0.31;58.52;93542.72;5093672;28;20097;-81
2021/03/19 06:13:25;;;;;;;12.43;6.70;;;;;;;-0.20;58.90;93554.06;5089689;28;20031;-81
2021/03/19 06:15:53;;;;;;;10.43;6.15;;;;;;;-0.19;57.85;93547.00;5089350;28;20070;-81
2021/03/19 06:18:40;;;;;;;11.63;6.72;;;;;;;-0.18;58.30;93548.56;5089483;28;20092;-80
2021/03/19 06:21:24;;;;;;;13.23;7.15;;;;;;;-0.18;58.12;93543.31;5090325;28;20028;-82
2021/03/19 06:24:23;;;;;;;12.25;6.65;;;;;;;-0.05;57.58;93553.38;5092064;28;20023;-80
2021/03/19 06:26:51;;;;;;;11.45;6.55;;;;;;;-0.09;58.17;93544.44;5089284;28;20028;-80
2021/03/19 06:29:28;;;;;;;12.05;5.82;;;;;;;-0.04;57.48;93555.75;5093860;28;20058;-79
2021/03/19 06:32:20;;;;;;;12.52;6.50;;;;;;;-0.01;57.56;93555.22;5092498;28;20024;-79
2021/03/19 06:35:17;;;;;;;10.60;5.97;;;;;;;0.11;57.39;93555.03;5089316;28;20115;-81
2021/03/19 06:37:50;;;;;;;17.95;8.60;;;;;;;0.18;57.61;93560.84;5077050;28;20058;-81
2021/03/19 06:40:30;;;;;;;22.08;8.82;;;;;;;0.32;57.29;93562.97;5090647;28;20393;-81
2021/03/19 06:43:29;;;;;;;24.75;8.55;;;;;;;0.44;57.20;93568.78;5086585;28;20036;-81
2021/03/19 06:46:09;;;;;;;19.73;8.05;;;;;;;0.47;55.88;93565.66;5090836;28;20027;-81
2021/03/19 06:48:47;;;;;;;14.48;7.00;;;;;;;0.53;55.58;93561.19;5091672;28;20034;-81
2021/03/19 06:51:34;;;;;;;13.90;7.80;;;;;;;0.56;55.08;93571.97;5091179;28;20036;-80
2021/03/19 06:54:09;;;;;;;12.02;6.70;;;;;;;0.35;55.53;93571.13;5077141;28;20044;-80
2021/03/19 06:56:36;;;;;;;11.52;6.60;;;;;;;0.43;55.39;93580.34;5087430;28;20028;-80
2021/03/19 06:59:23;;;;;;;11.93;6.72;;;;;;;0.39;55.61;93576.66;5089892;28;20093;-80
2021/03/19 07:01:49;;;;;;;13.02;7.28;;;;;;;0.43;55.54;93564.59;5091737;28;20031;-79
2021/03/19 07:04:32;;;;;;;14.45;7.32;;;;;;;0.51;55.66;93569.34;5090663;28;20038;-78
2021/03/19 07:07:04;;;;;;;17.58;6.55;;;;;;;0.60;54.85;93569.63;5091281;28;20032;-80
2021/03/19 07:09:37;;;;;;;;;;;;;;;0.60;54.31;93575.66;5092580;28;20119;-80
2021/03/19 07:12:40;;;;;;;14.65;6.22;;;;;;;0.57;55.04;93570.94;5090556;28;19912;-82
2021/03/19 07:15:20;;;;;;;10.00;5.70;;;;;;;0.63;54.19;93570.94;5087125;28;20016;-81
2021/03/19 07:17:54;;;;;;;13.77;7.60;;;;;;;0.68;54.42;93573.59;5089849;28;20028;-80
2021/03/19 07:20:44;;;;;;;15.05;6.45;;;;;;;0.66;54.35;93565.97;5089329;28;20089;-80
2021/03/19 07:23:19;;;;;;;16.17;7.10;;;;;;;0.67;55.06;93577.25;5089565;28;20043;-79
2021/03/19 07:26:01;;;;;;;24.92;7.57;;;;;;;0.75;56.35;93574.13;5093399;28;20024;-78
2021/03/19 07:28:43;;;;;;;11.95;6.75;;;;;;;0.92;55.41;93579.16;5092163;28;20020;-79
2021/03/19 07:31:45;;;;;;;16.27;6.95;;;;;;;1.14;54.61;93557.91;5092326;28;20028;-77
2021/03/19 07:34:45;;;;;;;10.35;5.90;;;;;;;1.28;54.78;93566.84;5091929;28;20016;-77
2021/03/19 07:37:29;;;;;;;14.93;7.38;;;;;;;1.46;54.63;93559.53;5082303;28;20111;-77
2021/03/19 07:40:15;;;;;;;10.90;6.53;;;;;;;1.60;54.37;93563.19;5091960;28;20028;-78
2021/03/19 07:42:40;;;;;;;15.40;7.72;;;;;;;1.73;53.50;93567.91;5092102;28;20027;-78
2021/03/19 07:45:23;;;;;;;15.43;7.82;;;;;;;1.85;53.33;93566.84;5091879;28;20093;-77
2021/03/19 07:48:03;;;;;;;11.43;7.10;;;;;;;1.92;53.33;93570.78;5091986;28;20467;-78
2021/03/19 07:50:32;;;;;;;12.50;6.15;;;;;;;2.01;50.69;93563.13;5091861;28;20012;-78
2021/03/19 07:53:06;;;;;;;11.48;6.82;;;;;;;1.97;51.54;93556.81;5091389;28;20131;-77
2021/03/19 07:55:53;;;;;;;17.73;7.47;;;;;;;2.00;52.40;93559.72;5091821;28;20020;-78
2021/03/19 07:59:01;;;;;;;9.18;5.47;;;;;;;2.10;50.47;93560.75;5091342;28;20111;-79
2021/03/19 08:01:38;;;;;;;15.32;6.15;;;;;;;2.23;50.64;93551.50;5085397;28;21292;-79
2021/03/19 08:04:16;;;;;;;13.38;7.28;;;;;;;2.34;51.61;93558.28;5091814;28;20043;-79
2021/03/19 08:06:52;;;;;;;12.80;7.75;;;;;;;2.43;52.42;93564.59;5093022;28;20115;-78
2021/03/19 08:09:34;;;;;;;16.70;6.78;;;;;;;2.52;51.07;93562.97;5092592;28;20031;-78
2021/03/19 08:12:16;;;;;;;16.80;7.30;;;;;;;2.64;51.73;93565.28;5090393;28;20032;-79
2021/03/19 08:15:03;;;;;;;15.02;7.97;;;;;;;2.70;51.40;93566.81;5090572;28;20065;-78
2021/03/19 08:17:37;;;;;;;21.20;9.25;;;;;;;2.79;51.45;93565.22;5091621;28;20108;-77
2021/03/19 08:20:19;;;;;;;19.23;9.48;;;;;;;2.68;51.41;93568.16;5091555;28;20056;-84
2021/03/19 08:23:07;;;;;;;20.67;8.65;;;;;;;2.52;51.60;93559.53;5092104;28;20454;-78
2021/03/19 08:25:42;;;;;;;19.38;10.15;;;;;;;2.41;53.13;93564.84;5091579;28;20020;-77
2021/03/19 08:28:18;;;;;;;17.40;9.02;;;;;;;2.41;53.04;93559.59;5091428;28;20038;-77
2021/03/19 08:31:21;;;;;;;17.58;8.43;;;;;;;2.37;53.39;93563.81;5091334;28;20070;-77
2021/03/19 08:34:02;;;;;;;17.35;7.93;;;;;;;2.31;52.92;93553.59;5091629;28;20020;-78
2021/03/19 08:36:36;;;;;;;15.20;7.85;;;;;;;2.29;52.70;93556.47;5091130;28;20039;-74
2021/03/19 08:39:23;;;;;;;20.75;9.23;;;;;;;2.34;53.90;93545.16;5092207;28;20078;-76
2021/03/19 08:41:53;;;;;;;15.07;8.18;;;;;;;2.20;53.66;93553.63;5088970;28;20374;-78
2021/03/19 08:44:22;;;;;;;17.13;8.80;;;;;;;2.13;52.35;93553.09;5090734;28;20024;-77
2021/03/19 08:46:48;;;;;;;16.38;8.32;;;;;;;2.10;53.02;93545.75;5090899;28;20032;-76
2021/03/19 08:49:25;;;;;;;16.73;10.02;;;;;;;2.04;53.15;93546.84;5091973;28;20400;-75
2021/03/19 08:51:54;;;;;;;16.35;8.80;;;;;;;2.03;51.46;93563.66;5090956;28;20034;-76
2021/03/19 08:54:31;;;;;;;15.98;8.20;;;;;;;2.04;51.66;93556.56;5091865;28;20364;-78
2021/03/19 08:57:02;;;;;;;13.88;7.55;;;;;;;2.01;51.94;93555.22;5092457;28;20028;-76
2021/03/19 08:59:33;;;;;;;15.05;8.63;;;;;;;2.00;52.40;93549.19;5090517;28;20229;-74
2021/03/19 09:01:59;;;;;;;14.30;8.77;;;;;;;2.06;53.77;93551.81;5091882;28;20052;-74
2021/03/19 09:04:53;;;;;;;14.82;8.82;;;;;;;2.07;54.75;93550.75;5091902;28;20475;-77
2021/03/19 09:07:29;;;;;;;23.52;8.80;;;;;;;2.20;54.26;93539.69;5091797;28;20020;-76
2021/03/19 09:09:58;;;;;;;20.73;9.52;;;;;;;2.37;53.92;93544.63;5090816;28;20043;-77
2021/03/19 09:12:55;;;;;;;14.68;8.77;;;;;;;2.57;52.44;93544.53;5087638;28;20016;-77
2021/03/19 09:15:21;;;;;;;15.35;8.23;;;;;;;2.65;52.07;93540.56;5091352;28;20024;-77
2021/03/19 09:17:55;;;;;;;15.55;7.50;;;;;;;2.74;51.36;93531.00;5090487;28;20479;-78
2021/03/19 09:20:36;;;;;;;12.98;7.45;;;;;;;2.74;51.13;93528.38;5090307;28;20115;-79
2021/03/19 09:23:23;;;;;;;21.77;8.48;;;;;;;2.81;51.02;93518.34;5090102;28;20028;-80
2021/03/19 09:26:04;;;;;;;16.33;9.80;;;;;;;2.89;53.03;93535.44;5089976;28;20078;-79
2021/03/19 09:28:36;;;;;;;17.90;8.85;;;;;;;2.90;52.06;93529.09;5089972;28;20028;-78
2021/03/19 09:31:07;;;;;;;22.90;9.55;;;;;;;2.96;52.15;93550.91;5091571;28;20032;-81
2021/03/19 09:33:45;;;;;;;15.57;9.27;;;;;;;2.97;53.20;93540.13;5090003;28;20089;-79
2021/03/19 09:36:48;;;;;;;16.90;8.93;;;;;;;3.01;52.72;93543.78;5091394;28;20411;-79
2021/03/19 09:39:36;;;;;;;;;;;;;;;3.07;51.27;93536.59;5091606;28;20116;-80
2021/03/19 09:42:01;;;;;;;14.68;8.00;;;;;;;3.11;51.70;93535.00;5043396;28;19911;-80
2021/03/19 09:44:29;;;;;;;15.43;8.63;;;;;;;3.26;50.56;93528.06;5090065;28;20024;-79
2021/03/19 09:46:59;;;;;;;14.13;8.18;;;;;;;3.25;51.04;93537.03;5090848;28;20086;-77
2021/03/19 09:49:26;;;;;;;15.68;8.50;;;;;;;3.26;50.63;93534.13;5090059;28;20077;-80
2021/03/19 09:51:52;;;;;;;13.95;8.18;;;;;;;3.41;50.30;93531.34;5090984;28;20054;-78
2021/03/19 09:54:29;;;;;;;15.60;8.85;;;;;;;3.54;50.63;93534.41;5089616;28;20048;-81
2021/03/19 09:57:00;;;;;;;16.83;9.25;;;;;;;3.69;51.08;93529.03;5089817;28;20086;-81
2021/03/19 09:59:29;;;;;;;29.35;11.73;;;;;;;3.76;50.34;93537.38;5089589;28;20034;-80
2021/03/19 10:01:56;;;;;;;15.48;8.82;;;;;;;3.75;50.19;93529.78;5089655;28;20035;-80
2021/03/19 10:04:39;;;;;;;14.13;8.10;;;;;;;3.92;49.12;93538.03;5089960;28;20075;-80
2021/03/19 10:07:17;;;;;;;20.08;9.35;;;;;;;3.89;50.14;93540.44;5090814;28;20020;-79
2021/03/19 10:09:49;;;;;;;17.42;8.25;;;;;;;3.77;49.31;93532.91;5089361;28;20035;-78
2021/03/19 10:12:16;;;;;;;13.68;9.00;;;;;;;3.85;49.22;93534.13;5089455;28;20070;-78
2021/03/19 10:14:45;;;;;;;13.85;7.63;;;;;;;4.01;48.94;93539.00;5089207;28;20024;-79
2021/03/19 10:17:30;;;;;;;13.23;7.38;;;;;;;4.11;47.06;93529.41;5088974;28;20024;-78
2021/03/19 10:20:00;;;;;;;15.90;8.52;;;;;;;4.17;47.47;93533.56;5089273;28;20177;-80
2021/03/19 10:22:43;;;;;;;12.63;6.97;;;;;;;4.31;45.56;93546.88;5088511;28;20601;-78
2021/03/19 10:25:16;;;;;;;18.95;9.70;;;;;;;4.43;47.05;93545.38;5087906;28;20020;-76
2021/03/19 10:27:47;;;;;;;26.90;7.65;;;;;;;4.59;47.38;93542.59;5088101;28;20063;-76
2021/03/19 10:30:38;;;;;;;18.02;8.27;;;;;;;4.76;45.73;93544.75;5088642;28;20028;-76
2021/03/19 10:33:16;;;;;;;11.50;7.32;;;;;;;4.83;44.94;93540.69;5089671;28;20484;-77
2021/03/19 10:35:59;;;;;;;12.93;7.22;;;;;;;4.89;44.09;93528.19;5088343;28;20028;-77
2021/03/19 10:38:48;;;;;;;12.05;7.28;;;;;;;4.78;46.17;93534.69;5089958;28;20031;-77
2021/03/19 10:41:39;;;;;;;12.68;6.53;;;;;;;4.94;43.62;93527.34;5089349;28;20048;-76
2021/03/19 10:44:29;;;;;;;11.05;6.38;;;;;;;5.05;43.48;93528.78;5089291;28;20027;-77
2021/03/19 10:46:57;;;;;;;12.95;8.00;;;;;;;5.10;44.79;93530.56;5086330;28;20155;-76
2021/03/19 10:49:32;;;;;;;14.02;7.65;;;;;;;5.08;42.81;93527.41;5087477;28;20507;-76
2021/03/19 10:52:03;;;;;;;14.65;7.15;;;;;;;5.14;44.51;93519.13;5087883;28;20028;-78
2021/03/19 10:54:33;;;;;;;11.30;6.57;;;;;;;5.18;42.30;93517.47;5087657;28;20465;-78
2021/03/19 10:57:02;;;;;;;13.50;6.40;;;;;;;5.19;43.01;93513.78;5088002;28;20411;-78
2021/03/19 10:59:28;;;;;;;12.55;7.03;;;;;;;5.27;43.54;93515.00;5087336;28;20031;-76
2021/03/19 11:01:54;;;;;;;13.32;6.70;;;;;;;5.48;41.98;93514.66;5087610;28;20475;-76
2021/03/19 11:04:36;;;;;;;11.98;6.88;;;;;;;5.61;42.10;93513.91;5089113;28;20131;-76
2021/03/19 11:07:24;;;;;;;10.88;6.13;;;;;;;5.70;40.54;93511.38;5085304;28;20028;-79
2021/03/19 11:10:11;;;;;;;9.95;6.13;;;;;;;5.68;40.90;93509.03;5089245;28;20012;-78
2021/03/19 11:12:46;;;;;;;11.43;6.15;;;;;;;5.92;40.63;93505.44;5088011;28;20109;-78
2021/03/19 11:15:17;;;;;;;12.88;6.30;;;;;;;6.04;40.24;93516.38;5088045;28;20039;-78
2021/03/19 11:17:43;;;;;;;11.70;5.70;;;;;;;6.04;39.28;93505.78;5087513;28;20062;-78
2021/03/19 11:20:33;;;;;;;9.23;5.82;;;;;;;5.97;40.39;93500.09;5089020;28;20032;-80
2021/03/19 11:22:59;;;;;;;11.48;6.50;;;;;;;5.75;40.24;93503.38;5079114;28;20051;-78
2021/03/19 11:25:24;;;;;;;8.95;5.82;;;;;;;5.57;40.17;93503.13;5087695;28;20479;-77
2021/03/19 11:27:50;;;;;;;16.02;5.78;;;;;;;5.66;41.91;93505.09;5087757;28;20119;-78
2021/03/19 11:30:29;;;;;;;11.73;6.43;;;;;;;5.78;40.68;93508.06;5087591;28;21064;-77
2021/03/19 11:33:10;;;;;;;9.27;6.13;;;;;;;5.71;41.06;93507.66;5087811;28;20442;-77
2021/03/19 11:35:37;;;;;;;14.37;6.63;;;;;;;5.70;40.65;93514.81;5087346;28;20016;-76
2021/03/19 11:38:03;;;;;;;12.27;6.30;;;;;;;5.66;40.83;93505.91;5086835;28;20370;-76
2021/03/19 11:40:37;;;;;;;11.77;6.22;;;;;;;5.63;41.13;93514.41;5088484;28;20035;-76
2021/03/19 11:43:05;;;;;;;8.57;5.25;;;;;;;5.53;41.44;93509.28;5088801;28;20028;-78
2021/03/19 11:45:40;;;;;;;16.95;6.40;;;;;;;5.52;41.64;93495.28;5088703;28;20031;-77
2021/03/19 11:48:15;;;;;;;16.58;6.78;;;;;;;5.45;41.38;93508.09;5087480;28;20024;-77
2021/03/19 11:50:52;;;;;;;11.52;6.13;;;;;;;5.49;41.32;93497.72;5087221;28;20016;-77
2021/03/19 11:53:27;;;;;;;14.48;6.05;;;;;;;5.52;41.22;93500.56;5087289;28;20039;-76
2021/03/19 11:55:55;;;;;;;8.00;5.10;;;;;;;5.63;41.14;93495.91;5087636;28;20035;-80
2021/03/19 11:58:24;;;;;;;11.40;6.65;;;;;;;5.71;40.71;93487.28;5088853;28;20030;-76
2021/03/19 12:00:51;;;;;;;14.40;6.70;;;;;;;5.96;41.18;93495.88;5087255;28;20115;-78